createdAt,value
2023-05-15T00:03:07.157Z,4.15
2023-05-15T00:08:14.426Z,4.29
2023-05-15T00:13:21.863Z,4.47
2023-05-15T00:18:29.067Z,4.05
2023-05-15T00:23:36.436Z,4.94
2023-05-15T00:28:43.615Z,4.56
2023-05-15T00:33:50.865Z,4.48
2023-05-15T00:38:58.073Z,4.13
2023-05-15T00:44:05.388Z,4.28
2023-05-15T00:49:12.683Z,4.27
2023-05-15T00:54:20.155Z,4.13
2023-05-15T00:59:27.432Z,4.15
2023-05-15T01:04:34.846Z,4.63
2023-05-15T01:09:42.138Z,4.62
2023-05-15T01:14:49.423Z,4.56
2023-05-15T01:19:56.841Z,4.79
2023-05-15T01:25:04.133Z,4.46
2023-05-15T01:30:11.416Z,5.35
2023-05-15T01:35:18.740Z,5.52
2023-05-15T01:40:26.015Z,5.93
2023-05-15T01:45:33.402Z,5.51
2023-05-15T01:50:40.604Z,5.22
2023-05-15T01:55:47.874Z,5.75
2023-05-15T02:00:55.041Z,5.51
2023-05-15T02:06:02.308Z,5.48
2023-05-15T02:11:09.499Z,5.53
2023-05-15T02:16:16.720Z,5.43
2023-05-15T02:21:23.979Z,5.62
2023-05-15T02:26:31.393Z,5.72
2023-05-15T02:31:38.718Z,5.72
2023-05-15T02:36:46.033Z,5.76
2023-05-15T02:41:53.325Z,5.63
2023-05-15T02:47:00.605Z,6.11
2023-05-15T02:52:07.888Z,6.48
2023-05-15T02:57:15.136Z,6.61
2023-05-15T03:02:22.352Z,6.83
2023-05-15T03:07:29.591Z,5.64
2023-05-15T03:12:36.745Z,6.27
2023-05-15T03:17:44.050Z,6.64
2023-05-15T03:22:51.195Z,5.63
2023-05-15T03:27:58.498Z,6.43
2023-05-15T03:33:05.738Z,5.45
2023-05-15T03:38:13.045Z,6.28
2023-05-15T03:43:20.321Z,6.42
2023-05-15T03:48:27.540Z,6.11
2023-05-15T03:53:34.808Z,6.01
2023-05-15T03:58:42.154Z,6.22
2023-05-15T04:03:49.338Z,5.91
2023-05-15T04:08:56.661Z,6.17
2023-05-15T04:14:03.893Z,6.75
2023-05-15T04:19:11.239Z,6.53
2023-05-15T04:24:18.472Z,6.62
2023-05-15T04:29:25.766Z,6.66
2023-05-15T04:34:32.964Z,7.07
2023-05-15T04:39:40.254Z,6.35
2023-05-15T04:44:47.701Z,6.55
2023-05-15T04:49:55.245Z,7.08
2023-05-15T04:55:02.660Z,6.29
2023-05-15T05:00:09.950Z,6.60
2023-05-15T05:05:17.168Z,6.86
2023-05-15T05:15:29.350Z,7.52
2023-05-15T05:20:36.737Z,6.82
2023-05-15T05:25:43.940Z,7.33
2023-05-15T05:30:51.226Z,7.05
2023-05-15T05:35:58.445Z,7.19
2023-05-15T05:41:05.769Z,6.80
2023-05-15T05:46:12.937Z,6.47
2023-05-15T05:51:20.251Z,6.93
2023-05-15T05:56:27.574Z,6.49
2023-05-15T06:01:34.946Z,6.56
2023-05-15T06:06:43.043Z,6.58
2023-05-15T06:11:50.422Z,6.87
2023-05-15T06:16:57.750Z,6.32
2023-05-15T06:22:05.025Z,5.76
2023-05-15T06:27:12.358Z,6.10
2023-05-15T06:32:19.746Z,6.11
2023-05-15T06:37:26.958Z,6.07
2023-05-15T06:42:34.277Z,5.65
2023-05-15T06:47:42.019Z,5.62
2023-05-15T06:52:49.440Z,5.52
2023-05-15T06:57:57.344Z,5.47
2023-05-15T07:03:04.660Z,5.81
2023-05-15T07:08:11.918Z,6.05
2023-05-15T07:13:19.280Z,5.22
2023-05-15T07:18:26.550Z,5.23
2023-05-15T07:23:33.877Z,5.36
2023-05-15T07:28:41.109Z,5.23
2023-05-15T07:33:48.432Z,5.18
2023-05-15T07:38:55.622Z,5.20
2023-05-15T07:44:02.859Z,4.79
2023-05-15T07:49:10.048Z,5.23
2023-05-15T07:54:17.366Z,5.24
2023-05-15T07:59:24.652Z,4.62
2023-05-15T08:04:31.894Z,5.13
2023-05-15T08:09:39.102Z,4.80
2023-05-15T08:14:46.464Z,5.05
2023-05-15T08:19:53.612Z,4.60
2023-05-15T08:25:00.843Z,4.79
2023-05-15T08:30:08.039Z,4.80
2023-05-15T08:35:15.313Z,4.44
2023-05-15T08:40:31.103Z,4.55
2023-05-15T08:45:29.415Z,4.29
2023-05-15T08:50:36.774Z,4.50
2023-05-15T08:55:44.074Z,4.59
2023-05-15T09:00:52.366Z,4.63
2023-05-15T09:05:59.733Z,4.25
2023-05-15T09:11:06.905Z,4.48
2023-05-15T09:16:14.395Z,4.45
2023-05-15T09:21:21.569Z,4.77
2023-05-15T09:26:28.866Z,4.60
2023-05-15T09:31:36.281Z,4.41
2023-05-15T09:36:43.510Z,4.25
2023-05-15T09:41:50.716Z,4.48
2023-05-15T09:46:58.333Z,4.29
2023-05-15T09:52:05.809Z,4.56
2023-05-15T09:57:13.132Z,4.30
2023-05-15T10:02:20.588Z,4.43
2023-05-15T10:07:27.905Z,4.44
2023-05-15T10:12:35.598Z,4.12
2023-05-15T10:17:42.976Z,4.35
2023-05-15T10:22:50.755Z,4.40
2023-05-15T10:27:58.062Z,4.14
2023-05-15T10:33:05.422Z,4.13
2023-05-15T10:38:13.278Z,4.05
2023-05-15T10:43:21.415Z,4.26
2023-05-15T10:48:28.819Z,4.06
2023-05-15T10:53:36.114Z,4.66
2023-05-15T10:58:44.895Z,4.57
2023-05-15T11:03:54.595Z,4.33
2023-05-15T11:08:59.652Z,3.74
2023-05-15T11:14:07.159Z,4.26
2023-05-15T11:19:14.893Z,4.35
2023-05-15T11:24:22.767Z,4.37
2023-05-15T11:29:30.388Z,4.04
2023-05-15T11:34:38.037Z,4.18
2023-05-15T11:39:45.784Z,4.05
2023-05-15T11:44:54.425Z,4.47
2023-05-15T11:50:02.113Z,4.33
2023-05-15T11:55:09.670Z,4.29
2023-05-15T12:00:17.038Z,3.71
2023-05-15T12:05:24.231Z,3.99
2023-05-15T12:10:31.690Z,3.69
2023-05-15T12:15:39.067Z,3.23
2023-05-15T12:20:46.728Z,3.50
2023-05-15T12:25:54.180Z,3.15
2023-05-15T12:31:05.057Z,3.08
2023-05-15T12:36:02.624Z,2.92
2023-05-15T12:41:10.811Z,2.86
2023-05-15T12:46:18.064Z,2.70
2023-05-15T12:51:25.586Z,3.11
2023-05-15T12:56:32.843Z,2.70
2023-05-15T13:01:41.267Z,2.95
2023-05-15T13:06:48.449Z,2.83
2023-05-15T13:11:55.959Z,2.84
2023-05-15T13:17:03.462Z,3.01
2023-05-15T13:22:10.830Z,2.81
2023-05-15T13:27:18.050Z,2.92
2023-05-15T13:32:25.856Z,2.96
2023-05-15T13:37:33.825Z,3.04
2023-05-15T13:42:41.641Z,2.87
2023-05-15T13:47:48.939Z,2.65
2023-05-15T13:52:56.324Z,2.77
2023-05-15T13:58:03.867Z,2.69
2023-05-15T14:03:14.103Z,2.87
2023-05-15T14:08:18.261Z,2.75
2023-05-15T14:13:26.086Z,2.86
2023-05-15T14:18:33.646Z,2.84
2023-05-15T14:23:41.431Z,2.76
2023-05-15T14:28:49.006Z,2.87
2023-05-15T14:33:56.641Z,3.07
2023-05-15T14:39:04.668Z,3.07
2023-05-15T14:44:12.369Z,2.73
2023-05-15T14:49:19.948Z,2.95
2023-05-15T14:54:27.587Z,2.98
2023-05-15T14:59:35.192Z,2.70
2023-05-15T15:04:42.773Z,2.87
2023-05-15T15:09:50.257Z,2.95
2023-05-15T15:14:57.991Z,3.52
2023-05-15T15:20:05.811Z,2.97
2023-05-15T15:25:13.565Z,2.73
2023-05-15T15:30:22.397Z,3.13
2023-05-15T15:35:30.012Z,2.59
2023-05-15T15:40:37.598Z,3.33
2023-05-15T15:45:51.044Z,3.39
2023-05-15T15:50:48.674Z,3.09
2023-05-15T15:55:56.334Z,3.85
2023-05-15T16:01:03.764Z,2.76
2023-05-15T16:06:11.487Z,3.14
2023-05-15T16:11:18.780Z,3.20
2023-05-15T16:16:26.319Z,2.91
2023-05-15T16:21:33.478Z,3.05
2023-05-15T16:26:41.397Z,3.43
2023-05-15T16:31:48.910Z,3.63
2023-05-15T16:36:56.413Z,2.75
2023-05-15T16:42:03.836Z,3.17
2023-05-15T16:47:11.482Z,3.22
2023-05-15T16:52:18.994Z,2.69
2023-05-15T16:57:26.666Z,3.05
2023-05-15T17:02:34.016Z,2.81
2023-05-15T17:07:41.573Z,3.04
2023-05-15T17:12:48.785Z,2.75
2023-05-15T17:17:56.270Z,2.84
2023-05-15T17:23:03.672Z,2.96
2023-05-15T17:28:11.249Z,3.00
2023-05-15T17:33:18.588Z,2.90
2023-05-15T17:38:26.094Z,3.01
2023-05-15T17:43:33.349Z,3.09
2023-05-15T17:48:40.725Z,3.36
2023-05-15T17:53:48.040Z,3.05
2023-05-15T17:58:55.636Z,3.15
2023-05-15T18:04:02.850Z,3.86
2023-05-15T18:09:10.203Z,3.28
2023-05-15T18:14:17.541Z,3.17
2023-05-15T18:19:24.913Z,3.39
2023-05-15T18:24:32.217Z,3.34
2023-05-15T18:29:39.669Z,3.54
2023-05-15T18:34:46.940Z,3.30
2023-05-15T18:39:54.421Z,3.54
2023-05-15T18:45:01.950Z,3.48
2023-05-15T18:50:09.450Z,3.32
2023-05-15T18:55:16.734Z,3.59
2023-05-15T19:00:37.351Z,3.34
2023-05-15T19:05:30.910Z,3.28
2023-05-15T19:10:38.375Z,3.32
2023-05-15T19:15:45.683Z,3.29
2023-05-15T19:20:53.008Z,3.21
2023-05-15T19:26:00.320Z,3.44
2023-05-15T19:31:14.094Z,3.21
2023-05-15T19:36:14.491Z,3.11
2023-05-15T19:41:21.939Z,3.26
2023-05-15T19:46:29.268Z,3.56
2023-05-15T19:51:36.651Z,3.44
2023-05-15T19:56:43.857Z,3.58
2023-05-15T20:01:51.605Z,3.40
2023-05-15T20:06:58.722Z,3.34
2023-05-15T20:12:06.674Z,3.33
2023-05-15T20:17:14.028Z,3.17
2023-05-15T20:22:21.436Z,3.28
2023-05-15T20:27:28.987Z,3.58
2023-05-15T20:32:36.418Z,3.64
2023-05-15T20:37:43.589Z,4.18
2023-05-15T20:42:50.949Z,3.65
2023-05-15T20:47:58.185Z,4.14
2023-05-15T20:53:05.565Z,4.12
2023-05-15T20:58:12.979Z,4.38
2023-05-15T21:03:20.450Z,4.17
2023-05-15T21:08:27.611Z,3.82
2023-05-15T21:13:34.957Z,4.22
2023-05-15T21:18:42.393Z,3.92
2023-05-15T21:23:49.704Z,3.96
2023-05-15T21:28:56.928Z,3.71
2023-05-15T21:34:04.535Z,4.02
2023-05-15T21:39:11.950Z,3.77
2023-05-15T21:44:19.432Z,4.13
2023-05-15T21:49:26.913Z,3.66
2023-05-15T21:54:34.366Z,3.80
2023-05-15T21:59:41.584Z,4.33
2023-05-15T22:04:49.039Z,4.32
2023-05-15T22:09:56.323Z,3.77
2023-05-15T22:15:03.720Z,4.10
2023-05-15T22:20:10.998Z,4.18
2023-05-15T22:25:18.372Z,4.01
2023-05-15T22:30:25.872Z,4.73
2023-05-15T22:35:32.972Z,4.13
2023-05-15T22:40:40.242Z,4.19
2023-05-15T22:45:47.645Z,4.15
2023-05-15T22:50:54.781Z,4.27
2023-05-15T22:56:02.091Z,4.67
2023-05-15T23:01:09.343Z,4.19
2023-05-15T23:06:16.716Z,4.85
2023-05-15T23:11:24.083Z,5.08
2023-05-15T23:16:31.421Z,4.81
2023-05-15T23:21:38.664Z,4.93
2023-05-15T23:26:45.902Z,5.28
2023-05-15T23:31:53.504Z,5.42
2023-05-15T23:37:00.561Z,4.85
2023-05-15T23:42:07.860Z,5.18
2023-05-15T23:47:15.242Z,5.28
2023-05-15T23:52:22.532Z,5.08
2023-05-15T23:57:29.922Z,5.07
